createdAt,value
2019-03-20T00:00:34.995Z,1025.53
2019-03-20T00:01:43.387Z,1025.50
2019-03-20T00:02:35.953Z,1025.53
2019-03-20T00:03:34.924Z,1025.52
2019-03-20T00:04:34.923Z,1025.56
2019-03-20T00:05:34.906Z,1025.59
2019-03-20T00:06:34.889Z,1025.64
2019-03-20T00:07:34.899Z,1025.60
2019-03-20T00:08:34.871Z,1025.60
2019-03-20T00:09:34.863Z,1025.60
2019-03-20T00:10:34.878Z,1025.60
2019-03-20T00:11:34.952Z,1025.62
2019-03-20T00:12:34.896Z,1025.61
2019-03-20T00:13:34.831Z,1025.62
2019-03-20T00:14:34.811Z,1025.61
2019-03-20T00:15:34.889Z,1025.59
2019-03-20T00:16:34.784Z,1025.59
2019-03-20T00:17:34.776Z,1025.62
2019-03-20T00:18:34.763Z,1025.65
2019-03-20T00:19:34.756Z,1025.61
2019-03-20T00:20:34.735Z,1025.62
2019-03-20T00:21:34.729Z,1025.64
2019-03-20T00:22:34.742Z,1025.63
2019-03-20T00:23:34.701Z,1025.67
2019-03-20T00:24:34.692Z,1025.66
2019-03-20T00:25:34.701Z,1025.68
2019-03-20T00:26:34.705Z,1025.70
2019-03-20T00:27:34.677Z,1025.66
2019-03-20T00:28:34.718Z,1025.62
2019-03-20T00:29:34.630Z,1025.64
2019-03-20T00:30:34.620Z,1025.64
2019-03-20T00:31:34.627Z,1025.63
2019-03-20T00:32:34.621Z,1025.65
2019-03-20T00:33:34.623Z,1025.67
2019-03-20T00:34:34.602Z,1025.65
2019-03-20T00:35:34.559Z,1025.69
2019-03-20T00:36:34.565Z,1025.67
2019-03-20T00:37:34.559Z,1025.68
2019-03-20T00:38:34.532Z,1025.68
2019-03-20T00:39:34.527Z,1025.66
2019-03-20T00:40:34.515Z,1025.66
2019-03-20T00:41:34.598Z,1025.63
2019-03-20T00:42:35.528Z,1025.70
2019-03-20T00:43:34.473Z,1025.68
2019-03-20T00:44:34.471Z,1025.68
2019-03-20T00:45:34.453Z,1025.66
2019-03-20T00:46:34.464Z,1025.62
2019-03-20T00:47:34.445Z,1025.61
2019-03-20T00:48:34.435Z,1025.65
2019-03-20T00:49:34.444Z,1025.64
2019-03-20T00:50:34.412Z,1025.65
2019-03-20T00:51:34.384Z,1025.68
2019-03-20T00:52:34.392Z,1025.68
2019-03-20T00:53:34.360Z,1025.70
2019-03-20T00:54:34.355Z,1025.73
2019-03-20T00:55:34.368Z,1025.68
2019-03-20T00:56:34.363Z,1025.69
2019-03-20T00:57:34.336Z,1025.70
2019-03-20T00:58:34.319Z,1025.72
2019-03-20T00:59:34.306Z,1025.73
2019-03-20T01:00:34.298Z,1025.74
2019-03-20T01:01:34.309Z,1025.77
2019-03-20T01:02:34.305Z,1025.73
2019-03-20T01:03:34.258Z,1025.71
2019-03-20T01:04:34.246Z,1025.73
2019-03-20T01:05:34.236Z,1025.70
2019-03-20T01:06:34.260Z,1025.69
2019-03-20T01:07:34.230Z,1025.69
2019-03-20T01:08:34.205Z,1025.70
2019-03-20T01:09:34.221Z,1025.67
2019-03-20T01:10:34.177Z,1025.63
2019-03-20T01:11:34.217Z,1025.69
2019-03-20T01:12:34.196Z,1025.68
2019-03-20T01:13:34.173Z,1025.68
2019-03-20T01:14:34.130Z,1025.62
2019-03-20T01:15:34.131Z,1025.62
2019-03-20T01:16:34.124Z,1025.64
2019-03-20T01:17:34.111Z,1025.68
2019-03-20T01:18:34.114Z,1025.66
2019-03-20T01:19:34.080Z,1025.68
2019-03-20T01:20:34.088Z,1025.68
2019-03-20T01:21:34.057Z,1025.69
2019-03-20T01:22:34.047Z,1025.71
2019-03-20T01:23:34.056Z,1025.73
2019-03-20T01:24:34.037Z,1025.69
2019-03-20T01:25:35.165Z,1025.68
2019-03-20T01:26:34.004Z,1025.70
2019-03-20T01:27:33.991Z,1025.70
2019-03-20T01:28:34.010Z,1025.70
2019-03-20T01:29:33.967Z,1025.71
2019-03-20T01:30:33.988Z,1025.73
2019-03-20T01:31:33.953Z,1025.73
2019-03-20T01:32:33.940Z,1025.73
2019-03-20T01:33:33.934Z,1025.73
2019-03-20T01:34:33.911Z,1025.68
2019-03-20T01:35:33.906Z,1025.70
2019-03-20T01:36:33.927Z,1025.68
2019-03-20T01:37:33.875Z,1025.67
2019-03-20T01:38:33.880Z,1025.68
2019-03-20T01:39:33.858Z,1025.70
2019-03-20T01:40:33.844Z,1025.72
2019-03-20T01:41:38.010Z,1025.68
2019-03-20T01:42:33.827Z,1025.72
2019-03-20T01:43:33.857Z,1025.72
2019-03-20T01:44:33.806Z,1025.70
2019-03-20T01:45:33.807Z,1025.70
2019-03-20T01:46:33.787Z,1025.70
2019-03-20T01:47:33.787Z,1025.67
2019-03-20T01:48:33.785Z,1025.64
2019-03-20T01:49:33.756Z,1025.65
2019-03-20T01:50:33.753Z,1025.64
2019-03-20T01:51:33.748Z,1025.66
2019-03-20T01:52:33.716Z,1025.60
2019-03-20T01:53:33.715Z,1025.59
2019-03-20T01:54:33.711Z,1025.59
2019-03-20T01:55:33.783Z,1025.61
2019-03-20T01:56:33.687Z,1025.60
2019-03-20T01:57:33.657Z,1025.63
2019-03-20T01:58:33.667Z,1025.60
2019-03-20T01:59:33.660Z,1025.69
2019-03-20T02:00:33.634Z,1025.63
2019-03-20T02:01:33.634Z,1025.65
2019-03-20T02:02:33.610Z,1025.70
2019-03-20T02:03:33.610Z,1025.66
2019-03-20T02:04:33.594Z,1025.73
2019-03-20T02:05:36.205Z,1025.73
2019-03-20T02:06:33.558Z,1025.71
2019-03-20T02:07:33.550Z,1025.72
2019-03-20T02:08:33.560Z,1025.69
2019-03-20T02:09:33.585Z,1025.72
2019-03-20T02:10:33.534Z,1025.68
2019-03-20T02:11:33.582Z,1025.68
2019-03-20T02:12:33.518Z,1025.65
2019-03-20T02:13:33.506Z,1025.64
2019-03-20T02:14:33.489Z,1025.68
2019-03-20T02:15:38.917Z,1025.68
2019-03-20T02:16:34.448Z,1025.68
2019-03-20T02:17:33.453Z,1025.68
2019-03-20T02:18:33.461Z,1025.66
2019-03-20T02:19:33.419Z,1025.68
2019-03-20T02:20:33.423Z,1025.72
2019-03-20T02:21:33.404Z,1025.81
2019-03-20T02:22:33.400Z,1025.79
2019-03-20T02:23:33.408Z,1025.81
2019-03-20T02:24:33.362Z,1025.78
2019-03-20T02:25:33.359Z,1025.82
2019-03-20T02:26:33.354Z,1025.80
2019-03-20T02:27:33.347Z,1025.78
2019-03-20T02:28:33.365Z,1025.77
2019-03-20T02:29:33.312Z,1025.71
2019-03-20T02:30:33.299Z,1025.69
2019-03-20T02:31:33.298Z,1025.65
2019-03-20T02:32:33.291Z,1025.65
2019-03-20T02:33:33.316Z,1025.65
2019-03-20T02:34:33.254Z,1025.66
2019-03-20T02:35:33.251Z,1025.73
2019-03-20T02:36:33.254Z,1025.82
2019-03-20T02:37:33.252Z,1025.84
2019-03-20T02:38:33.207Z,1025.78
2019-03-20T02:39:33.328Z,1025.79
2019-03-20T02:40:33.185Z,1025.74
2019-03-20T02:41:33.220Z,1025.79
2019-03-20T02:42:33.169Z,1025.79
2019-03-20T02:43:33.159Z,1025.79
2019-03-20T02:44:33.149Z,1025.80
2019-03-20T02:45:33.138Z,1025.79
2019-03-20T02:46:33.167Z,1025.80
2019-03-20T02:47:33.137Z,1025.84
2019-03-20T02:48:33.104Z,1025.83
2019-03-20T02:49:33.117Z,1025.79
2019-03-20T02:50:33.100Z,1025.86
2019-03-20T02:51:33.091Z,1025.84
2019-03-20T02:52:33.052Z,1025.81
2019-03-20T02:53:33.061Z,1025.84
2019-03-20T02:54:33.047Z,1025.83
2019-03-20T02:55:33.028Z,1025.85
2019-03-20T02:56:33.009Z,1025.84
2019-03-20T02:57:33.006Z,1025.82
2019-03-20T02:58:32.989Z,1025.79
2019-03-20T02:59:32.983Z,1025.78
2019-03-20T03:00:32.979Z,1025.79
2019-03-20T03:01:32.985Z,1025.80
2019-03-20T03:02:32.951Z,1025.80
2019-03-20T03:03:32.948Z,1025.81
2019-03-20T03:04:32.950Z,1025.81
2019-03-20T03:05:32.922Z,1025.81
2019-03-20T03:06:32.896Z,1025.81
2019-03-20T03:07:32.898Z,1025.79
2019-03-20T03:08:32.905Z,1025.75
2019-03-20T03:09:32.918Z,1025.75
2019-03-20T03:10:32.898Z,1025.76
2019-03-20T03:11:37.659Z,1025.74
2019-03-20T03:12:32.833Z,1025.67
2019-03-20T03:13:32.819Z,1025.71
2019-03-20T03:14:32.830Z,1025.70
2019-03-20T03:15:32.817Z,1025.69
2019-03-20T03:16:32.815Z,1025.64
2019-03-20T03:17:32.783Z,1025.66
2019-03-20T03:18:32.763Z,1025.62
2019-03-20T03:19:32.779Z,1025.59
2019-03-20T03:20:32.753Z,1025.61
2019-03-20T03:21:32.754Z,1025.63
2019-03-20T03:22:32.719Z,1025.68
2019-03-20T03:23:32.725Z,1025.68
2019-03-20T03:24:32.748Z,1025.67
2019-03-20T03:25:32.690Z,1025.73
2019-03-20T03:26:32.686Z,1025.72
2019-03-20T03:27:32.665Z,1025.73
2019-03-20T03:28:32.656Z,1025.71
2019-03-20T03:29:32.658Z,1025.73
2019-03-20T03:30:32.667Z,1025.72
2019-03-20T03:31:32.649Z,1025.71
2019-03-20T03:32:32.641Z,1025.74
2019-03-20T03:33:32.660Z,1025.73
2019-03-20T03:34:32.633Z,1025.70
2019-03-20T03:35:32.582Z,1025.70
2019-03-20T03:36:32.585Z,1025.60
2019-03-20T03:37:32.561Z,1025.62
2019-03-20T03:38:32.580Z,1025.58
2019-03-20T03:39:32.563Z,1025.62
2019-03-20T03:40:32.535Z,1025.66
2019-03-20T03:41:32.606Z,1025.67
2019-03-20T03:42:32.526Z,1025.72
2019-03-20T03:43:32.519Z,1025.72
2019-03-20T03:44:32.505Z,1025.74
2019-03-20T03:45:32.557Z,1025.78
2019-03-20T03:46:32.469Z,1025.77
2019-03-20T03:47:32.448Z,1025.78
2019-03-20T03:48:32.461Z,1025.80
2019-03-20T03:49:32.450Z,1025.82
2019-03-20T03:50:32.446Z,1025.81
2019-03-20T03:51:32.412Z,1025.85
2019-03-20T03:52:32.401Z,1025.81
2019-03-20T03:53:32.437Z,1025.85
2019-03-20T03:54:32.404Z,1025.91
2019-03-20T03:55:32.361Z,1025.91
2019-03-20T03:56:32.372Z,1025.93
2019-03-20T03:57:32.362Z,1025.95
2019-03-20T03:58:32.897Z,1025.96
2019-03-20T03:59:32.334Z,1025.96
2019-03-20T04:00:32.321Z,1025.98
2019-03-20T04:01:32.296Z,1026.00
2019-03-20T04:02:32.282Z,1026.02
2019-03-20T04:03:32.279Z,1026.00
2019-03-20T04:04:32.296Z,1026.06
2019-03-20T04:05:32.258Z,1026.08
2019-03-20T04:06:35.841Z,1026.10
2019-03-20T04:07:32.260Z,1026.12
2019-03-20T04:08:32.219Z,1026.09
2019-03-20T04:09:32.258Z,1026.06
2019-03-20T04:10:32.203Z,1026.06
2019-03-20T04:11:32.188Z,1026.04
2019-03-20T04:12:32.189Z,1026.02
2019-03-20T04:13:32.178Z,1026.08
2019-03-20T04:14:32.193Z,1026.04
2019-03-20T04:15:32.169Z,1026.06
2019-03-20T04:16:32.153Z,1026.06
2019-03-20T04:17:32.174Z,1026.05
2019-03-20T04:18:32.162Z,1026.02
2019-03-20T04:19:32.155Z,1026.06
2019-03-20T04:20:32.182Z,1026.10
2019-03-20T04:21:32.074Z,1026.06
2019-03-20T04:22:32.069Z,1026.08
2019-03-20T04:23:32.079Z,1026.08
2019-03-20T04:24:32.040Z,1026.08
2019-03-20T04:25:32.042Z,1026.10
2019-03-20T04:26:32.032Z,1026.05
2019-03-20T04:27:32.013Z,1026.06
2019-03-20T04:28:31.999Z,1026.05
2019-03-20T04:29:31.997Z,1026.07
2019-03-20T04:30:32.007Z,1026.04
2019-03-20T04:31:31.997Z,1026.05
2019-03-20T04:32:31.971Z,1026.05
2019-03-20T04:33:31.945Z,1026.01
2019-03-20T04:34:31.948Z,1026.04
2019-03-20T04:35:31.946Z,1026.04
2019-03-20T04:36:31.907Z,1026.08
2019-03-20T04:37:31.895Z,1026.13
2019-03-20T04:38:31.890Z,1026.14
2019-03-20T04:39:31.899Z,1026.17
2019-03-20T04:40:31.906Z,1026.16
2019-03-20T04:41:31.955Z,1026.19
2019-03-20T04:42:31.864Z,1026.15
2019-03-20T04:43:31.838Z,1026.16
2019-03-20T04:44:31.818Z,1026.16
2019-03-20T04:45:31.819Z,1026.18
2019-03-20T04:46:31.808Z,1026.15
2019-03-20T04:47:31.801Z,1026.19
2019-03-20T04:48:31.804Z,1026.19
2019-03-20T04:49:31.762Z,1026.21
2019-03-20T04:50:31.794Z,1026.21
2019-03-20T04:51:31.742Z,1026.21
2019-03-20T04:52:31.728Z,1026.22
2019-03-20T04:53:31.733Z,1026.22
2019-03-20T04:54:31.722Z,1026.25
2019-03-20T04:55:31.724Z,1026.23
2019-03-20T04:56:31.694Z,1026.24
2019-03-20T04:57:31.673Z,1026.26
2019-03-20T04:58:31.668Z,1026.20
2019-03-20T04:59:31.653Z,1026.26
2019-03-20T05:00:31.671Z,1026.27
2019-03-20T05:01:31.629Z,1026.21
2019-03-20T05:02:31.635Z,1026.23
2019-03-20T05:03:31.608Z,1026.19
2019-03-20T05:04:31.600Z,1026.23
2019-03-20T05:05:31.595Z,1026.21
2019-03-20T05:06:31.588Z,1026.19
2019-03-20T05:07:31.582Z,1026.23
2019-03-20T05:08:31.562Z,1026.17
2019-03-20T05:09:31.560Z,1026.21
2019-03-20T05:10:31.559Z,1026.19
2019-03-20T05:11:31.605Z,1026.23
2019-03-20T05:12:31.534Z,1026.21
2019-03-20T05:13:31.502Z,1026.20
2019-03-20T05:14:31.495Z,1026.19
2019-03-20T05:15:31.499Z,1026.20
2019-03-20T05:16:31.463Z,1026.20
2019-03-20T05:17:31.466Z,1026.20
2019-03-20T05:18:31.444Z,1026.21
2019-03-20T05:19:31.453Z,1026.16
2019-03-20T05:20:31.450Z,1026.20
2019-03-20T05:21:31.419Z,1026.15
2019-03-20T05:22:31.402Z,1026.18
2019-03-20T05:23:31.389Z,1026.19
2019-03-20T05:24:31.395Z,1026.17
2019-03-20T05:25:31.400Z,1026.21
2019-03-20T05:26:31.386Z,1026.20
2019-03-20T05:27:31.367Z,1026.20
2019-03-20T05:28:31.353Z,1026.18
2019-03-20T05:29:31.340Z,1026.20
2019-03-20T05:30:31.315Z,1026.27
2019-03-20T05:31:31.309Z,1026.23
2019-03-20T05:32:31.334Z,1026.26
2019-03-20T05:33:31.301Z,1026.31
2019-03-20T05:34:31.274Z,1026.31
2019-03-20T05:35:31.315Z,1026.34
2019-03-20T05:36:31.265Z,1026.31
2019-03-20T05:37:31.270Z,1026.37
2019-03-20T05:38:31.235Z,1026.34
2019-03-20T05:39:31.240Z,1026.39
2019-03-20T05:40:31.207Z,1026.36
2019-03-20T05:41:31.198Z,1026.33
2019-03-20T05:42:31.319Z,1026.37
2019-03-20T05:43:31.172Z,1026.42
2019-03-20T05:44:31.161Z,1026.42
2019-03-20T05:45:31.144Z,1026.41
2019-03-20T05:46:31.151Z,1026.42
2019-03-20T05:47:31.142Z,1026.43
2019-03-20T05:48:31.135Z,1026.44
2019-03-20T05:49:31.119Z,1026.47
2019-03-20T05:50:31.090Z,1026.45
2019-03-20T05:51:31.100Z,1026.45
2019-03-20T05:52:31.093Z,1026.46
2019-03-20T05:53:31.067Z,1026.44
2019-03-20T05:54:31.079Z,1026.47
2019-03-20T05:55:31.049Z,1026.48
2019-03-20T05:56:31.037Z,1026.47
2019-03-20T05:57:31.059Z,1026.51
2019-03-20T05:58:31.043Z,1026.57
2019-03-20T05:59:30.993Z,1026.55
2019-03-20T06:00:31.011Z,1026.52
2019-03-20T06:01:31.036Z,1026.51
2019-03-20T06:02:30.961Z,1026.50
2019-03-20T06:03:31.005Z,1026.48
2019-03-20T06:04:30.940Z,1026.53
2019-03-20T06:05:30.944Z,1026.48
2019-03-20T06:06:30.934Z,1026.49
2019-03-20T06:07:30.922Z,1026.51
2019-03-20T06:08:31.358Z,1026.52
2019-03-20T06:09:30.896Z,1026.56
2019-03-20T06:10:30.898Z,1026.55
2019-03-20T06:11:30.883Z,1026.54
2019-03-20T06:12:30.935Z,1026.53
2019-03-20T06:13:30.847Z,1026.55
2019-03-20T06:14:30.844Z,1026.57
2019-03-20T06:15:30.887Z,1026.58
2019-03-20T06:16:30.806Z,1026.61
2019-03-20T06:17:30.801Z,1026.62
2019-03-20T06:18:30.811Z,1026.58
2019-03-20T06:19:30.785Z,1026.64
2019-03-20T06:20:30.767Z,1026.62
2019-03-20T06:21:30.774Z,1026.65
2019-03-20T06:22:30.749Z,1026.65
2019-03-20T06:23:30.744Z,1026.66
2019-03-20T06:24:30.740Z,1026.63
2019-03-20T06:25:30.727Z,1026.62
2019-03-20T06:26:30.694Z,1026.69
2019-03-20T06:27:30.694Z,1026.69
2019-03-20T06:28:30.705Z,1026.70
2019-03-20T06:29:30.662Z,1026.69
2019-03-20T06:30:30.684Z,1026.71
2019-03-20T06:31:30.672Z,1026.65
2019-03-20T06:32:30.646Z,1026.74
2019-03-20T06:33:30.671Z,1026.69
2019-03-20T06:34:30.622Z,1026.74
2019-03-20T06:35:30.616Z,1026.78
2019-03-20T06:36:30.593Z,1026.78
2019-03-20T06:37:32.839Z,1026.77
2019-03-20T06:38:30.605Z,1026.77
2019-03-20T06:39:30.609Z,1026.80
2019-03-20T06:40:30.559Z,1026.81
2019-03-20T06:41:30.538Z,1026.86
2019-03-20T06:42:30.567Z,1026.84
2019-03-20T06:43:30.516Z,1026.85
2019-03-20T06:44:30.514Z,1026.88
2019-03-20T06:45:30.498Z,1026.89
2019-03-20T06:46:30.471Z,1026.87
2019-03-20T06:47:30.468Z,1026.91
2019-03-20T06:48:30.485Z,1026.89
2019-03-20T06:49:30.485Z,1026.90
2019-03-20T06:50:30.431Z,1026.91
2019-03-20T06:51:30.435Z,1026.98
2019-03-20T06:52:30.416Z,1026.98
2019-03-20T06:53:30.399Z,1027.01
2019-03-20T06:54:30.408Z,1027.00
2019-03-20T06:55:30.379Z,1026.96
2019-03-20T06:56:30.382Z,1026.96
2019-03-20T06:57:30.357Z,1027.01
2019-03-20T06:58:30.362Z,1027.02
2019-03-20T06:59:30.356Z,1026.95
2019-03-20T07:00:30.327Z,1027.01
2019-03-20T07:01:30.317Z,1027.00
2019-03-20T07:02:30.304Z,1026.98
2019-03-20T07:03:30.348Z,1026.98
2019-03-20T07:04:30.328Z,1026.94
2019-03-20T07:05:30.278Z,1026.97
2019-03-20T07:06:30.347Z,1026.98
2019-03-20T07:07:30.254Z,1027.03
2019-03-20T07:08:30.298Z,1027.04
2019-03-20T07:09:30.227Z,1027.06
2019-03-20T07:10:30.214Z,1027.06
2019-03-20T07:11:30.222Z,1027.10
2019-03-20T07:12:30.313Z,1027.07
2019-03-20T07:13:30.179Z,1027.04
2019-03-20T07:14:30.181Z,1027.09
2019-03-20T07:15:30.159Z,1027.05
2019-03-20T07:16:30.207Z,1027.04
2019-03-20T07:17:30.140Z,1027.05
2019-03-20T07:18:30.133Z,1027.05
2019-03-20T07:19:30.132Z,1027.04
2019-03-20T07:20:30.115Z,1027.07
2019-03-20T07:21:30.086Z,1027.05
2019-03-20T07:22:30.088Z,1027.08
2019-03-20T07:23:30.076Z,1027.04
2019-03-20T07:24:30.093Z,1027.08
2019-03-20T07:25:30.045Z,1027.10
2019-03-20T07:26:30.042Z,1027.14
2019-03-20T07:27:30.080Z,1027.12
2019-03-20T07:28:30.054Z,1027.16
2019-03-20T07:29:30.019Z,1027.15
2019-03-20T07:30:30.003Z,1027.17
2019-03-20T07:31:30.001Z,1027.16
2019-03-20T07:32:30.177Z,1027.21
2019-03-20T07:33:29.988Z,1027.19
2019-03-20T07:34:29.949Z,1027.20
2019-03-20T07:35:29.939Z,1027.21
2019-03-20T07:36:29.967Z,1027.23
2019-03-20T07:37:29.920Z,1027.22
2019-03-20T07:38:29.912Z,1027.20
2019-03-20T07:39:29.912Z,1027.23
2019-03-20T07:40:29.908Z,1027.26
2019-03-20T07:41:29.884Z,1027.27
2019-03-20T07:42:29.954Z,1027.23
2019-03-20T07:43:29.858Z,1027.21
2019-03-20T07:44:30.186Z,1027.23
2019-03-20T07:45:29.829Z,1027.26
2019-03-20T07:46:29.864Z,1027.23
2019-03-20T07:47:29.831Z,1027.28
2019-03-20T07:48:29.807Z,1027.27
2019-03-20T07:49:29.799Z,1027.28
2019-03-20T07:50:29.787Z,1027.28
2019-03-20T07:51:29.769Z,1027.29
2019-03-20T07:52:29.756Z,1027.31
2019-03-20T07:53:29.754Z,1027.33
2019-03-20T07:54:29.747Z,1027.33
2019-03-20T07:55:29.735Z,1027.34
2019-03-20T07:56:29.706Z,1027.31
2019-03-20T07:57:29.694Z,1027.39
2019-03-20T07:58:29.699Z,1027.37
2019-03-20T07:59:29.674Z,1027.41
2019-03-20T08:00:29.679Z,1027.37
2019-03-20T08:01:29.697Z,1027.40
2019-03-20T08:02:29.670Z,1027.40
2019-03-20T08:03:29.637Z,1027.37
2019-03-20T08:04:29.643Z,1027.36
2019-03-20T08:05:29.787Z,1027.34
2019-03-20T08:06:29.642Z,1027.36
2019-03-20T08:07:29.597Z,1027.36
2019-03-20T08:08:29.589Z,1027.34
2019-03-20T08:09:29.663Z,1027.36
2019-03-20T08:10:29.587Z,1027.34
2019-03-20T08:11:29.562Z,1027.33
2019-03-20T08:12:29.580Z,1027.36
2019-03-20T08:13:29.529Z,1027.32
2019-03-20T08:14:29.508Z,1027.35
2019-03-20T08:15:29.525Z,1027.35
2019-03-20T08:16:29.497Z,1027.36
2019-03-20T08:17:29.484Z,1027.37
2019-03-20T08:18:29.516Z,1027.36
2019-03-20T08:19:29.483Z,1027.37
2019-03-20T08:20:29.511Z,1027.37
2019-03-20T08:21:29.427Z,1027.39
2019-03-20T08:22:29.437Z,1027.41
2019-03-20T08:23:29.421Z,1027.42
2019-03-20T08:24:29.421Z,1027.42
2019-03-20T08:25:29.428Z,1027.45
2019-03-20T08:26:29.406Z,1027.42
2019-03-20T08:27:29.377Z,1027.44
2019-03-20T08:28:29.378Z,1027.46
2019-03-20T08:29:29.399Z,1027.47
2019-03-20T08:30:29.348Z,1027.47
2019-03-20T08:31:29.357Z,1027.48
2019-03-20T08:32:29.331Z,1027.51
2019-03-20T08:33:29.302Z,1027.51
2019-03-20T08:34:29.299Z,1027.52
2019-03-20T08:35:29.288Z,1027.51
2019-03-20T08:36:29.272Z,1027.53
2019-03-20T08:37:29.270Z,1027.52
2019-03-20T08:38:29.249Z,1027.54
2019-03-20T08:39:29.242Z,1027.55
2019-03-20T08:40:29.241Z,1027.58
2019-03-20T08:41:29.332Z,1027.62
2019-03-20T08:42:29.227Z,1027.61
2019-03-20T08:43:29.201Z,1027.60
2019-03-20T08:44:29.214Z,1027.58
2019-03-20T08:45:29.197Z,1027.61
2019-03-20T08:46:29.164Z,1027.59
2019-03-20T08:47:29.148Z,1027.57
2019-03-20T08:48:29.159Z,1027.65
2019-03-20T08:49:29.145Z,1027.68
2019-03-20T08:50:29.123Z,1027.63
2019-03-20T08:51:29.098Z,1027.63
2019-03-20T08:52:29.107Z,1027.66
2019-03-20T08:53:29.102Z,1027.64
2019-03-20T08:54:29.125Z,1027.68
2019-03-20T08:55:29.051Z,1027.64
2019-03-20T08:56:29.054Z,1027.69
2019-03-20T08:57:29.040Z,1027.68
2019-03-20T08:58:29.039Z,1027.68
2019-03-20T08:59:29.031Z,1027.65
2019-03-20T09:00:29.023Z,1027.73
2019-03-20T09:01:29.194Z,1027.73
2019-03-20T09:02:28.977Z,1027.74
2019-03-20T09:03:28.984Z,1027.76
2019-03-20T09:04:28.956Z,1027.79
2019-03-20T09:05:28.942Z,1027.78
2019-03-20T09:06:28.961Z,1027.77
2019-03-20T09:07:28.948Z,1027.77
2019-03-20T09:08:29.973Z,1027.79
2019-03-20T09:09:28.898Z,1027.70
2019-03-20T09:10:28.891Z,1027.76
2019-03-20T09:11:28.883Z,1027.79
2019-03-20T09:12:28.892Z,1027.73
2019-03-20T09:13:28.852Z,1027.79
2019-03-20T09:14:28.850Z,1027.81
2019-03-20T09:15:28.837Z,1027.78
2019-03-20T09:16:28.831Z,1027.76
2019-03-20T09:17:28.816Z,1027.74
2019-03-20T09:18:28.824Z,1027.75
2019-03-20T09:19:28.789Z,1027.76
2019-03-20T09:20:28.781Z,1027.76
2019-03-20T09:21:28.796Z,1027.78
2019-03-20T09:22:28.751Z,1027.78
2019-03-20T09:23:28.750Z,1027.75
2019-03-20T09:24:28.757Z,1027.78
2019-03-20T09:25:28.735Z,1027.82
2019-03-20T09:26:28.727Z,1027.80
2019-03-20T09:27:28.764Z,1027.83
2019-03-20T09:28:28.755Z,1027.80
2019-03-20T09:29:36.043Z,1027.80
2019-03-20T09:30:29.692Z,1027.78
2019-03-20T09:31:28.656Z,1027.83
2019-03-20T09:32:28.665Z,1027.86
2019-03-20T09:33:28.663Z,1027.84
2019-03-20T09:34:28.631Z,1027.81
2019-03-20T09:35:28.629Z,1027.84
2019-03-20T09:36:28.764Z,1027.86
2019-03-20T09:37:28.603Z,1027.85
2019-03-20T09:38:28.594Z,1027.81
2019-03-20T09:39:28.588Z,1027.83
2019-03-20T09:40:28.582Z,1027.86
2019-03-20T09:41:28.568Z,1027.88
2019-03-20T09:42:28.583Z,1027.90
2019-03-20T09:43:28.583Z,1027.89
2019-03-20T09:44:28.525Z,1027.94
2019-03-20T09:45:28.537Z,1027.93
2019-03-20T09:46:28.489Z,1027.90
2019-03-20T09:47:28.510Z,1027.88
2019-03-20T09:48:28.508Z,1027.88
2019-03-20T09:49:28.462Z,1027.87
2019-03-20T09:50:28.444Z,1027.88
2019-03-20T09:51:28.451Z,1027.84
2019-03-20T09:52:28.458Z,1027.87
2019-03-20T09:53:28.466Z,1027.85
2019-03-20T09:54:28.410Z,1027.84
2019-03-20T09:55:28.403Z,1027.84
2019-03-20T09:56:28.418Z,1027.85
2019-03-20T09:57:28.392Z,1027.87
2019-03-20T09:58:28.362Z,1027.87
2019-03-20T09:59:28.352Z,1027.89
2019-03-20T10:00:28.357Z,1027.89
2019-03-20T10:01:28.369Z,1027.91
2019-03-20T10:02:28.327Z,1027.90
2019-03-20T10:03:28.318Z,1027.89
2019-03-20T10:04:28.294Z,1027.89
2019-03-20T10:05:28.304Z,1027.89
2019-03-20T10:06:30.182Z,1027.84
2019-03-20T10:07:28.295Z,1027.85
2019-03-20T10:08:28.287Z,1027.82
2019-03-20T10:09:28.280Z,1027.83
2019-03-20T10:10:28.246Z,1027.82
2019-03-20T10:11:28.224Z,1027.79
2019-03-20T10:12:28.226Z,1027.81
2019-03-20T10:13:28.204Z,1027.82
2019-03-20T10:14:28.200Z,1027.81
2019-03-20T10:15:28.198Z,1027.80
2019-03-20T10:16:28.159Z,1027.79
2019-03-20T10:17:28.183Z,1027.75
2019-03-20T10:18:28.152Z,1027.75
2019-03-20T10:19:28.178Z,1027.76
2019-03-20T10:20:28.114Z,1027.76
2019-03-20T10:21:28.117Z,1027.75
2019-03-20T10:22:28.112Z,1027.76
2019-03-20T10:23:28.084Z,1027.78
2019-03-20T10:24:28.097Z,1027.81
2019-03-20T10:25:28.078Z,1027.78
2019-03-20T10:26:28.066Z,1027.82
2019-03-20T10:27:28.079Z,1027.82
2019-03-20T10:28:28.041Z,1027.80
2019-03-20T10:29:28.034Z,1027.80
2019-03-20T10:30:28.023Z,1027.80
2019-03-20T10:31:28.002Z,1027.77
2019-03-20T10:32:27.991Z,1027.76
2019-03-20T10:33:27.985Z,1027.77
2019-03-20T10:34:27.988Z,1027.71
2019-03-20T10:35:27.962Z,1027.78
2019-03-20T10:36:27.944Z,1027.78
2019-03-20T10:37:27.986Z,1027.75
2019-03-20T10:38:28.027Z,1027.78
2019-03-20T10:39:27.912Z,1027.74
2019-03-20T10:40:27.921Z,1027.78
2019-03-20T10:41:27.897Z,1027.76
2019-03-20T10:42:27.971Z,1027.76
2019-03-20T10:43:27.888Z,1027.72
2019-03-20T10:44:27.855Z,1027.75
2019-03-20T10:45:27.868Z,1027.75
2019-03-20T10:46:27.830Z,1027.74
2019-03-20T10:47:27.850Z,1027.74
2019-03-20T10:48:27.973Z,1027.77
2019-03-20T10:49:27.802Z,1027.74
2019-03-20T10:50:27.787Z,1027.76
2019-03-20T10:51:27.791Z,1027.76
2019-03-20T10:52:27.770Z,1027.80
2019-03-20T10:53:27.791Z,1027.78
2019-03-20T10:54:27.749Z,1027.76
2019-03-20T10:55:27.747Z,1027.74
2019-03-20T10:56:27.717Z,1027.73
2019-03-20T10:57:27.741Z,1027.70
2019-03-20T10:58:27.730Z,1027.74
2019-03-20T10:59:27.713Z,1027.78
2019-03-20T11:00:27.688Z,1027.81
2019-03-20T11:01:27.671Z,1027.79
2019-03-20T11:02:27.660Z,1027.79
2019-03-20T11:03:27.656Z,1027.82
2019-03-20T11:04:27.732Z,1027.77
2019-03-20T11:05:27.631Z,1027.80
2019-03-20T11:06:27.616Z,1027.80
2019-03-20T11:07:27.613Z,1027.84
2019-03-20T11:08:27.632Z,1027.79
2019-03-20T11:09:27.579Z,1027.77
2019-03-20T11:10:27.601Z,1027.76
2019-03-20T11:11:27.594Z,1027.83
2019-03-20T11:12:27.598Z,1027.83
2019-03-20T11:13:27.580Z,1027.79
2019-03-20T11:14:27.524Z,1027.79
2019-03-20T11:15:29.579Z,1027.78
2019-03-20T11:16:27.521Z,1027.76
2019-03-20T11:17:27.484Z,1027.75
2019-03-20T11:18:27.505Z,1027.70
2019-03-20T11:19:27.694Z,1027.71
2019-03-20T11:20:27.465Z,1027.72
2019-03-20T11:21:27.457Z,1027.68
2019-03-20T11:22:27.464Z,1027.67
2019-03-20T11:23:27.432Z,1027.66
2019-03-20T11:24:27.420Z,1027.70
2019-03-20T11:25:27.409Z,1027.71
2019-03-20T11:26:27.449Z,1027.67
2019-03-20T11:27:27.757Z,1027.67
2019-03-20T11:28:27.369Z,1027.66
2019-03-20T11:29:27.378Z,1027.59
2019-03-20T11:30:27.357Z,1027.63
2019-03-20T11:31:27.356Z,1027.65
2019-03-20T11:32:27.322Z,1027.61
2019-03-20T11:33:27.320Z,1027.60
2019-03-20T11:34:27.338Z,1027.56
2019-03-20T11:35:27.294Z,1027.55
2019-03-20T11:36:27.283Z,1027.55
2019-03-20T11:37:27.288Z,1027.57
2019-03-20T11:38:27.287Z,1027.58
2019-03-20T11:39:29.919Z,1027.56
2019-03-20T11:40:27.246Z,1027.57
2019-03-20T11:41:27.248Z,1027.58
2019-03-20T11:42:27.239Z,1027.59
2019-03-20T11:43:27.198Z,1027.60
2019-03-20T11:44:27.219Z,1027.60
2019-03-20T11:45:27.185Z,1027.60
2019-03-20T11:46:27.188Z,1027.58
2019-03-20T11:47:27.165Z,1027.57
2019-03-20T11:48:27.166Z,1027.59
2019-03-20T11:49:27.142Z,1027.56
2019-03-20T11:50:27.186Z,1027.65
2019-03-20T11:51:27.127Z,1027.60
2019-03-20T11:52:27.097Z,1027.64
2019-03-20T11:53:27.111Z,1027.60
2019-03-20T11:54:27.103Z,1027.63
2019-03-20T11:55:27.090Z,1027.60
2019-03-20T11:56:27.064Z,1027.62
2019-03-20T11:57:27.057Z,1027.60
2019-03-20T11:58:27.052Z,1027.56
2019-03-20T11:59:27.086Z,1027.55
2019-03-20T12:00:27.042Z,1027.57
2019-03-20T12:01:27.025Z,1027.53
2019-03-20T12:02:28.492Z,1027.57
2019-03-20T12:03:26.990Z,1027.58
2019-03-20T12:04:26.980Z,1027.61
2019-03-20T12:05:26.981Z,1027.60